Time;durP1;ratioP1;P1;durP2;ratioP2;P2;SDS_P1;SDS_P2;PMS_P1;PMS_P2;Temp;Humidity;BMP_temperature;BMP_pressure;BME280_temperature;BME280_humidity;BME280_pressure;Samples;Min_cycle;Max_cycle;Signal;HPM_P1;HPM_P2
2023/10/09 00:03:03;;;;;;;16.13;10.63;;;19.20;99.90;;;19.59;96.02;101942.41;5052318;28;20052;-72
2023/10/09 00:05:39;;;;;;;16.42;10.27;;;19.20;99.90;;;19.65;96.25;101947.63;5052805;28;20037;-72
2023/10/09 00:08:10;;;;;;;16.20;10.38;;;19.20;99.90;;;19.69;96.12;101946.66;5052533;28;20045;-73
2023/10/09 00:10:48;;;;;;;17.67;10.68;;;19.30;99.90;;;19.75;96.25;101950.06;5052255;28;20060;-72
2023/10/09 00:13:18;;;;;;;21.00;10.82;;;19.30;99.90;;;19.76;96.17;101945.59;5052836;28;20542;-72
2023/10/09 00:15:58;;;;;;;20.25;11.52;;;19.40;99.90;;;19.80;96.28;101944.59;5052350;28;20057;-72
2023/10/09 00:18:29;;;;;;;17.90;10.40;;;19.40;99.90;;;19.79;96.45;101943.69;5036655;28;20166;-73
2023/10/09 00:21:11;;;;;;;15.48;11.05;;;19.40;99.90;;;19.40;96.49;101868.63;5052252;28;20045;-72
2023/10/09 00:23:40;;;;;;;18.90;11.57;;;19.40;99.90;;;19.80;96.66;101941.91;5051997;28;20033;-73
2023/10/09 00:26:10;;;;;;;15.35;10.95;;;19.40;99.90;;;19.90;96.50;101939.88;5050401;28;20048;-73
2023/10/09 00:28:47;;;;;;;18.60;10.82;;;19.40;99.90;;;19.97;96.31;101936.97;5052559;28;20049;-72
2023/10/09 00:31:26;;;;;;;15.43;10.18;;;19.50;99.90;;;20.00;96.04;101933.31;5054277;28;20041;-72
2023/10/09 00:33:55;;;;;;;18.05;10.98;;;19.60;99.90;;;20.09;95.66;101931.25;5056613;28;20045;-73
2023/10/09 00:36:29;;;;;;;19.30;10.45;;;19.60;99.90;;;20.09;95.45;101936.63;5052039;28;20056;-73
2023/10/09 00:39:00;;;;;;;16.73;10.50;;;19.70;99.90;;;20.16;95.46;101938.25;5047526;28;20047;-73
2023/10/09 00:41:29;;;;;;;15.35;10.10;;;19.70;99.90;;;20.18;94.85;101935.53;5055186;28;20075;-73
2023/10/09 00:43:59;;;;;;;15.60;9.52;;;19.70;99.90;;;20.20;94.90;101941.78;5056757;28;20044;-72
2023/10/09 00:46:29;;;;;;;17.30;9.55;;;19.80;99.90;;;20.20;95.02;101939.97;5056093;28;20143;-71
2023/10/09 00:49:02;;;;;;;18.00;10.43;;;19.80;99.90;;;20.21;94.91;101930.97;5056382;28;20474;-72
2023/10/09 00:51:35;;;;;;;19.58;9.75;;;19.80;99.90;;;20.26;94.78;101934.44;5056333;28;20052;-73
2023/10/09 00:54:13;;;;;;;18.02;10.27;;;19.80;99.90;;;20.25;94.89;101940.72;5056555;28;20470;-73
2023/10/09 00:56:51;;;;;;;20.42;10.18;;;19.80;99.90;;;20.28;94.80;101937.09;5067896;28;20049;-74
2023/10/09 00:59:24;;;;;;;15.23;9.27;;;19.90;99.90;;;20.31;94.51;101927.13;5071763;28;20051;-72
2023/10/09 01:01:58;;;;;;;15.93;9.32;;;19.90;99.90;;;20.31;94.23;101927.13;5054566;28;20049;-74
2023/10/09 01:04:28;;;;;;;13.85;9.27;;;19.90;99.90;;;20.35;94.18;101925.22;5056089;28;20041;-73
2023/10/09 01:07:15;;;;;;;14.50;9.45;;;19.90;99.90;;;20.38;93.91;101920.63;5054905;28;20033;-73
2023/10/09 01:09:44;;;;;;;15.40;9.35;;;20.00;99.90;;;20.39;93.71;101908.97;5039511;28;20053;-72
2023/10/09 01:12:17;;;;;;;13.55;9.60;;;19.90;99.90;;;20.41;93.48;101912.50;5054776;28;20106;-73
2023/10/09 01:14:52;;;;;;;16.13;9.90;;;20.00;99.90;;;20.43;93.21;101904.41;5055907;28;20052;-73
2023/10/09 01:17:35;;;;;;;16.83;10.80;;;20.00;99.90;;;20.40;93.02;101899.13;5055528;28;20053;-73
2023/10/09 01:20:15;;;;;;;15.90;10.57;;;20.00;99.90;;;20.34;93.17;101899.28;5055369;28;20581;-73
2023/10/09 01:22:44;;;;;;;15.15;10.48;;;20.00;99.90;;;20.36;93.10;101897.44;5055301;28;20040;-74
2023/10/09 01:25:14;;;;;;;13.73;9.85;;;19.90;99.90;;;20.38;93.00;101896.44;5055211;28;20047;-73
2023/10/09 01:27:43;;;;;;;14.18;10.43;;;20.00;99.90;;;20.38;92.93;101888.38;5055693;28;20049;-73
2023/10/09 01:30:14;;;;;;;15.55;9.75;;;19.90;99.90;;;20.38;92.94;101882.16;5054207;28;20136;-73
2023/10/09 01:32:44;;;;;;;16.92;9.90;;;20.00;99.90;;;20.41;92.99;101874.88;5055388;28;20049;-73
2023/10/09 01:35:21;;;;;;;;;;;20.00;99.90;;;20.42;93.04;101887.38;5039796;28;20056;-72
2023/10/09 01:37:51;;;;;;;16.15;10.35;;;20.00;99.90;;;20.43;92.75;101878.41;5055508;28;20313;-72
2023/10/09 01:40:37;;;;;;;14.93;10.50;;;20.00;99.90;;;20.42;92.66;101875.78;5055228;28;20037;-72
2023/10/09 01:43:09;;;;;;;13.73;10.30;;;20.00;99.90;;;20.44;92.62;101874.78;5053394;28;20045;-72
2023/10/09 01:45:43;;;;;;;17.00;9.82;;;20.00;99.90;;;20.43;92.41;101867.66;5055197;28;20048;-73
2023/10/09 01:48:12;;;;;;;18.05;10.52;;;20.00;99.90;;;20.39;92.54;101860.59;5055418;28;20084;-73
2023/10/09 01:50:42;;;;;;;19.88;11.27;;;20.00;99.90;;;20.38;92.37;101858.81;5051900;28;20091;-73
2023/10/09 01:53:17;;;;;;;21.73;11.73;;;20.00;99.90;;;20.39;92.17;101871.34;5050693;28;20085;-73
2023/10/09 01:55:47;;;;;;;16.40;11.10;;;20.00;99.90;;;20.43;91.86;101856.00;5045794;28;20044;-73
2023/10/09 01:58:24;;;;;;;16.97;11.27;;;20.00;99.90;;;20.45;91.59;101860.44;5050447;28;20545;-73
2023/10/09 02:00:55;;;;;;;14.63;9.40;;;20.00;99.90;;;20.44;91.39;101858.66;5039264;28;20123;-72
2023/10/09 02:03:29;;;;;;;;;;;20.00;99.90;;;20.46;91.35;101864.00;5053845;28;20053;-73
2023/10/09 02:05:59;;;;;;;17.23;10.48;;;20.10;99.90;;;20.44;91.22;101861.34;5054665;28;19927;-74
2023/10/09 02:08:35;;;;;;;13.80;9.60;;;20.00;99.90;;;20.45;91.05;101865.78;5052009;28;20056;-72
2023/10/09 02:11:07;;;;;;;15.00;9.13;;;20.10;99.90;;;20.51;90.96;101875.50;5055019;28;20052;-73
2023/10/09 02:13:35;;;;;;;15.25;9.68;;;20.10;99.90;;;20.47;90.63;101858.56;5054774;28;20364;-73
2023/10/09 02:16:14;;;;;;;13.90;9.50;;;20.10;99.90;;;20.48;90.63;101865.69;5053485;28;20056;-73
2023/10/09 02:18:53;;;;;;;16.90;10.13;;;20.10;99.90;;;20.48;90.47;101863.00;5054940;28;20130;-73
2023/10/09 02:21:33;;;;;;;14.52;9.20;;;20.00;99.90;;;20.41;90.77;101852.47;5054566;28;20047;-73
2023/10/09 02:24:06;;;;;;;14.60;9.23;;;20.00;99.90;;;20.37;91.39;101857.06;5054120;28;20049;-72
2023/10/09 02:27:06;;;;;;;14.90;9.35;;;20.00;99.90;;;20.39;91.78;101860.59;5053778;28;20044;-73
2023/10/09 02:29:35;;;;;;;14.80;10.05;;;20.00;99.90;;;20.42;92.00;101870.38;5053854;28;20128;-74
2023/10/09 02:32:13;;;;;;;18.73;10.45;;;20.00;99.90;;;20.37;92.31;101870.50;5053996;28;20656;-73
2023/10/09 02:34:46;;;;;;;14.90;9.85;;;20.00;99.90;;;20.43;92.52;101864.06;5053679;28;20053;-73
2023/10/09 02:37:15;;;;;;;19.75;10.50;;;20.00;99.90;;;20.37;92.91;101865.13;5053570;28;20063;-73
2023/10/09 02:39:48;;;;;;;19.48;10.50;;;20.00;99.90;;;20.30;93.67;101857.28;5052398;28;20051;-73
2023/10/09 02:42:23;;;;;;;17.05;9.98;;;20.00;99.90;;;20.32;93.75;101853.66;5054041;28;20067;-72
2023/10/09 02:44:52;;;;;;;17.85;10.77;;;19.90;99.90;;;20.35;93.95;101840.09;5053861;28;20052;-73
2023/10/09 02:47:24;;;;;;;19.73;10.63;;;19.90;99.90;;;20.32;94.01;101836.63;5052447;28;20041;-74
2023/10/09 02:50:00;;;;;;;19.50;11.20;;;19.90;99.90;;;20.30;94.37;101839.38;5054152;28;20072;-73
2023/10/09 02:52:33;;;;;;;23.25;12.05;;;19.90;99.90;;;20.34;94.73;101842.84;5066277;28;20053;-73
2023/10/09 02:55:08;;;;;;;18.88;10.65;;;19.90;99.90;;;20.37;94.54;101846.31;5044392;28;20041;-73
2023/10/09 02:57:37;;;;;;;21.13;10.80;;;20.00;99.90;;;20.38;94.82;101847.22;5053861;28;20497;-73
2023/10/09 03:00:18;;;;;;;;;;;20.00;99.90;;;20.39;94.87;101839.09;5052888;28;20072;-73
2023/10/09 03:02:49;;;;;;;18.23;10.38;;;20.00;99.90;;;20.36;95.08;101824.88;5054031;28;19948;-74
2023/10/09 03:05:20;;;;;;;21.20;11.20;;;20.00;99.90;;;20.35;95.45;101833.84;5053943;28;20049;-73
2023/10/09 03:07:52;;;;;;;20.35;11.18;;;20.00;99.90;;;20.37;95.87;101826.63;5053925;28;20045;-74
2023/10/09 03:10:20;;;;;;;19.50;11.32;;;20.00;99.90;;;20.30;96.22;101825.94;5048945;28;20050;-73
2023/10/09 03:12:52;;;;;;;19.27;11.88;;;19.90;99.90;;;20.29;96.67;101818.78;5045784;28;20049;-73
2023/10/09 03:15:21;;;;;;;17.58;11.95;;;19.90;99.90;;;20.30;96.85;101816.97;5053561;28;20045;-74
2023/10/09 03:17:50;;;;;;;21.25;12.95;;;19.90;99.90;;;20.24;97.24;101823.41;5053301;28;20045;-73
2023/10/09 03:20:18;;;;;;;20.58;12.32;;;19.90;99.90;;;20.22;97.54;101814.53;5053701;28;20048;-73
2023/10/09 03:22:48;;;;;;;22.27;12.05;;;19.80;99.90;;;20.25;97.60;101819.78;5048890;28;20061;-74
2023/10/09 03:25:17;;;;;;;20.45;11.68;;;19.80;99.90;;;20.20;97.71;101815.47;5050800;28;20049;-73
2023/10/09 03:27:46;;;;;;;20.92;12.65;;;19.80;99.90;;;20.22;97.68;101822.59;5053599;28;20043;-74
2023/10/09 03:30:22;;;;;;;19.02;12.23;;;19.90;99.90;;;20.26;98.01;101853.81;5053314;28;20466;-72
2023/10/09 03:32:53;;;;;;;24.40;11.75;;;19.80;99.90;;;20.29;98.32;101858.19;5053081;28;20513;-73
2023/10/09 03:35:26;;;;;;;;;;;19.80;99.90;;;20.18;98.76;101892.53;5053399;28;20053;-73
2023/10/09 03:38:00;;;;;;;17.10;11.43;;;19.80;99.90;;;20.23;98.87;101858.38;5052424;28;20043;-73
2023/10/09 03:40:32;;;;;;;19.92;11.43;;;19.80;99.90;;;20.23;99.06;101875.38;5052539;28;20140;-73
2023/10/09 03:43:01;;;;;;;20.27;11.90;;;19.80;99.90;;;20.22;99.16;101873.63;5052574;28;20401;-74
2023/10/09 03:45:35;;;;;;;18.83;12.07;;;19.80;99.90;;;19.92;99.51;101857.44;5052522;28;20529;-74
2023/10/09 03:48:10;;;;;;;18.73;11.88;;;19.70;99.90;;;20.13;99.15;101864.91;5052673;28;20049;-73
2023/10/09 03:50:43;;;;;;;19.77;11.75;;;19.70;99.90;;;20.17;99.21;101854.03;5048245;28;20145;-73
2023/10/09 03:53:12;;;;;;;19.33;12.23;;;19.70;99.90;;;20.29;98.32;101852.81;5035564;28;20573;-72
2023/10/09 03:55:41;;;;;;;16.65;11.30;;;19.90;99.90;;;20.18;97.73;101841.47;5053249;28;20094;-73
2023/10/09 03:58:11;;;;;;;20.55;11.60;;;19.90;99.90;;;20.13;97.08;101856.84;5052447;28;20052;-73
2023/10/09 04:00:44;;;;;;;;;;;19.80;99.90;;;20.13;96.41;101857.72;5052822;28;20136;-73
2023/10/09 04:03:15;;;;;;;18.67;10.07;;;19.80;99.90;;;20.19;95.55;101857.59;5052629;28;19921;-72
2023/10/09 04:05:45;;;;;;;18.67;10.03;;;19.80;99.90;;;20.19;94.70;101862.09;5052539;28;20478;-72
2023/10/09 04:08:19;;;;;;;15.18;9.20;;;19.90;99.90;;;20.22;94.05;101853.94;5052929;28;20098;-72
2023/10/09 04:10:52;;;;;;;14.20;9.45;;;19.90;99.90;;;20.28;93.21;101843.03;5052995;28;20057;-72
2023/10/09 04:13:33;;;;;;;18.60;9.70;;;20.00;99.90;;;20.27;92.04;101822.44;5052541;28;20114;-74
2023/10/09 04:16:11;;;;;;;16.02;9.52;;;20.00;99.90;;;20.18;91.87;101802.09;5052775;28;20128;-73
2023/10/09 04:18:39;;;;;;;15.55;9.50;;;20.00;99.90;;;20.38;91.34;101825.72;5052703;28;20048;-73
2023/10/09 04:21:19;;;;;;;16.98;9.82;;;20.10;99.90;;;20.40;90.74;101815.78;5052477;28;20033;-74
2023/10/09 04:26:36;;;;;;;18.83;9.13;;;20.10;99.90;;;20.40;90.32;101810.41;5052359;28;20044;-74
2023/10/09 04:29:06;;;;;;;16.52;10.00;;;20.10;99.90;;;20.11;89.89;101759.31;5051248;28;20545;-73
2023/10/09 04:31:37;;;;;;;16.07;9.73;;;20.10;99.90;;;20.45;89.81;101827.28;5052464;28;20102;-71
2023/10/09 04:34:28;;;;;;;18.35;10.38;;;20.10;99.90;;;20.53;89.48;101836.88;5051259;28;20410;-72
2023/10/09 04:37:02;;;;;;;;;;;20.20;99.90;;;20.67;88.97;101837.31;5039732;28;20045;-74
2023/10/09 04:39:36;;;;;;;18.30;10.45;;;20.30;99.90;;;20.68;88.73;101836.41;5051696;28;19925;-74
2023/10/09 04:45:59;;;;;;;16.08;10.60;;;20.30;99.90;;;20.73;88.65;101859.59;5029525;28;20046;-73
2023/10/09 04:48:32;;;;;;;15.57;10.05;;;20.30;99.90;;;20.76;88.48;101854.13;5051897;28;20049;-73
2023/10/09 04:53:59;;;;;;;16.27;10.18;;;20.30;99.90;;;20.77;88.04;101856.75;5052025;28;20037;-74
2023/10/09 04:56:32;;;;;;;17.20;10.07;;;20.40;99.90;;;20.74;88.11;101858.66;5053365;28;20498;-73
2023/10/09 04:59:04;;;;;;;16.90;10.68;;;20.40;99.90;;;20.65;88.40;101874.13;5052242;28;20044;-73
2023/10/09 05:01:57;;;;;;;16.55;9.88;;;20.30;99.90;;;20.69;88.34;101862.38;5052082;28;20041;-72
2023/10/09 05:04:39;;;;;;;16.63;9.88;;;20.30;99.90;;;20.62;88.26;101871.56;5038146;28;20045;-70
2023/10/09 05:07:50;;;;;;;16.55;9.80;;;20.30;99.90;;;20.58;88.49;101871.69;5052469;28;20272;-66
2023/10/09 05:10:16;;;;;;;12.95;9.52;;;20.20;99.90;;;20.54;88.57;101884.34;5052329;28;20061;-72
2023/10/09 05:12:56;;;;;;;16.48;9.27;;;20.20;99.90;;;20.51;88.87;101881.75;5050902;28;20053;-72
2023/10/09 05:15:28;;;;;;;20.67;10.07;;;20.20;99.90;;;20.39;88.71;101849.84;5051947;28;20098;-73
2023/10/09 05:17:57;;;;;;;17.33;9.73;;;20.20;99.90;;;20.46;88.37;101872.06;5036908;28;20524;-72
2023/10/09 05:23:25;;;;;;;17.00;9.95;;;20.20;99.90;;;20.48;88.69;101871.06;5054709;28;20512;-72
2023/10/09 05:25:58;;;;;;;18.90;9.32;;;20.20;99.90;;;20.56;88.36;101873.53;5040071;28;20048;-71
2023/10/09 05:28:48;;;;;;;17.92;8.98;;;20.30;99.90;;;20.47;88.40;101873.81;5055293;28;20095;-73
2023/10/09 05:34:01;;;;;;;15.93;9.40;;;20.10;99.90;;;20.55;88.29;101871.78;5041323;28;20068;-69
2023/10/09 05:36:35;;;;;;;;;;;20.20;99.90;;;20.57;88.14;101859.19;5055748;28;20515;-69
2023/10/09 05:39:22;;;;;;;15.50;9.25;;;20.30;99.90;;;20.65;87.55;101858.00;5055708;28;19967;-69
2023/10/09 05:41:59;;;;;;;15.77;9.00;;;20.30;99.90;;;20.69;87.00;101864.19;5039091;28;20148;-69
2023/10/09 05:47:32;;;;;;;14.85;8.55;;;20.40;99.90;;;20.77;86.95;101855.91;5054477;28;20062;-70
2023/10/09 05:53:07;;;;;;;15.57;9.27;;;20.50;99.90;;;20.81;86.39;101836.91;5054808;28;20067;-73
2023/10/09 06:03:53;;;;;;;15.30;9.57;;;20.40;99.90;;;20.67;87.04;101842.72;5054886;28;20116;-73
2023/10/09 06:06:42;;;;;;;14.98;9.85;;;20.40;99.90;;;20.74;87.04;101835.34;5053383;28;20136;-73
2023/10/09 06:09:49;;;;;;;18.48;9.98;;;20.40;99.90;;;20.79;87.03;101829.84;5038138;28;20056;-70
2023/10/09 06:15:18;;;;;;;17.85;9.63;;;20.40;99.90;;;20.80;86.58;101813.63;5024851;28;20060;-71
2023/10/09 06:17:50;;;;;;;13.27;9.65;;;20.40;99.90;;;20.80;86.61;101815.44;5054475;28;20402;-71
2023/10/09 06:23:16;;;;;;;15.65;9.68;;;20.40;99.90;;;20.82;86.33;101844.06;5038860;28;20045;-71
2023/10/09 06:25:51;;;;;;;16.33;9.57;;;20.40;99.90;;;20.87;86.34;101850.16;5054663;28;20049;-70
2023/10/09 06:28:33;;;;;;;16.42;9.88;;;20.50;99.90;;;20.86;86.13;101855.59;5054093;28;20049;-71
2023/10/09 06:31:27;;;;;;;20.40;10.43;;;20.40;99.90;;;20.85;86.22;101852.03;5039219;28;20458;-70
2023/10/09 06:34:08;;;;;;;18.27;10.43;;;20.40;99.90;;;20.73;86.83;101873.06;5054486;28;20043;-71
2023/10/09 06:36:35;;;;;;;14.98;9.82;;;20.40;99.90;;;20.54;88.56;101886.13;5054238;28;20037;-70
2023/10/09 06:42:08;;;;;;;16.75;9.77;;;20.20;99.90;;;20.71;88.82;101872.22;5054444;28;20049;-72
2023/10/09 06:44:54;;;;;;;17.98;10.15;;;20.30;99.90;;;20.61;88.81;101855.47;5052024;28;20102;-71
2023/10/09 06:47:23;;;;;;;16.58;9.35;;;20.30;99.90;;;20.67;89.31;101877.66;5051901;28;20049;-70
2023/10/09 06:55:19;;;;;;;24.45;10.00;;;20.20;99.90;;;20.75;89.67;101890.03;5053208;28;20044;-71
2023/10/09 06:57:49;;;;;;;17.65;9.70;;;20.30;99.90;;;20.82;89.36;101888.91;5053672;28;20059;-71
2023/10/09 07:03:11;;;;;;;19.77;10.98;;;20.40;99.90;;;20.90;89.11;101857.28;5052465;28;20136;-73
2023/10/09 07:06:00;;;;;;;20.33;10.35;;;20.50;99.90;;;20.91;89.00;101872.47;5053408;28;20040;-71
2023/10/09 07:08:36;;;;;;;16.70;10.68;;;20.50;99.90;;;21.02;88.68;101867.69;5053844;28;20063;-71
2023/10/09 07:11:57;;;;;;;19.30;10.75;;;20.60;99.90;;;21.05;88.55;101856.81;5053220;28;20090;-70
2023/10/09 07:17:02;;;;;;;18.33;10.93;;;20.70;99.90;;;21.02;89.21;101867.69;5053536;28;20513;-71
2023/10/09 07:19:43;;;;;;;16.00;11.27;;;20.60;99.90;;;21.03;89.35;101874.81;5048845;28;20056;-73
2023/10/09 07:22:23;;;;;;;21.45;11.55;;;20.70;99.90;;;21.05;89.66;101881.03;5037731;28;20098;-73
2023/10/09 07:24:57;;;;;;;20.05;11.88;;;20.70;99.90;;;21.07;89.80;101861.22;5052786;28;20180;-71
2023/10/09 07:30:38;;;;;;;22.55;11.38;;;20.70;99.90;;;21.04;90.48;101879.28;5110490;27;20390;-70
2023/10/09 07:33:17;;;;;;;19.45;10.80;;;20.70;99.90;;;20.57;90.87;101798.22;5089983;28;20478;-78
2023/10/09 07:35:54;;;;;;;20.90;10.77;;;20.60;99.90;;;20.85;91.45;101848.47;5089877;28;20044;-81
2023/10/09 07:38:29;;;;;;;16.88;10.88;;;20.60;99.90;;;20.99;91.84;101868.63;5090535;28;20109;-72
2023/10/09 07:41:33;;;;;;;17.50;10.63;;;20.60;99.90;;;21.03;92.38;101858.69;5089860;28;20086;-73
2023/10/09 07:43:50;;;;;;;18.45;10.75;;;20.60;99.90;;;21.02;93.01;101867.69;5073969;28;20097;-73
2023/10/09 07:46:33;;;;;;;18.75;10.65;;;20.60;99.90;;;21.03;93.89;101858.69;5089697;28;20055;-72
2023/10/09 07:49:08;;;;;;;21.23;10.68;;;20.60;99.90;;;20.97;94.43;101861.53;5089482;28;20042;-73
2023/10/09 07:51:39;;;;;;;24.00;11.82;;;20.60;99.90;;;21.01;94.83;101849.78;5089637;28;20135;-74
2023/10/09 07:54:07;;;;;;;15.68;10.48;;;20.60;99.90;;;21.04;95.34;101861.31;5089997;28;20068;-73
2023/10/09 07:56:41;;;;;;;21.38;11.13;;;20.60;99.90;;;21.02;95.61;101862.31;5089599;28;20052;-73
2023/10/09 07:59:11;;;;;;;20.25;11.63;;;20.60;99.90;;;21.01;95.99;101852.47;5089209;28;20080;-72
2023/10/09 08:01:52;;;;;;;19.88;11.10;;;20.60;99.90;;;21.05;96.45;101852.31;5089078;28;20563;-72
2023/10/09 08:04:37;;;;;;;20.65;10.57;;;20.60;99.90;;;21.16;96.20;101847.47;5088002;28;20048;-73
2023/10/09 08:07:07;;;;;;;19.77;11.45;;;20.70;99.90;;;21.23;95.37;101857.13;5089447;28;20044;-73
2023/10/09 08:12:57;;;;;;;18.65;11.10;;;20.90;99.90;;;21.40;93.78;101861.94;5088820;28;20173;-72
2023/10/09 08:15:34;;;;;;;18.40;10.50;;;21.00;99.90;;;21.43;92.92;101859.13;5089248;28;20497;-72
2023/10/09 08:18:09;;;;;;;20.58;10.30;;;21.00;99.90;;;21.42;92.56;101874.44;5089284;28;20086;-74
2023/10/09 08:21:19;;;;;;;16.45;10.38;;;21.10;99.90;;;21.49;92.38;101885.88;5088988;28;20044;-73
2023/10/09 08:23:49;;;;;;;;;;;21.10;99.90;;;21.65;91.47;101911.34;5089059;28;20040;-73
2023/10/09 08:26:29;;;;;;;16.98;10.55;;;21.30;99.90;;;21.68;91.30;101924.72;5089076;28;19924;-73
2023/10/09 08:29:19;;;;;;;18.42;10.88;;;21.30;99.90;;;21.68;91.63;101927.41;5088869;28;20056;-72
2023/10/09 08:31:56;;;;;;;19.98;10.15;;;21.20;99.90;;;21.81;90.77;101926.13;5088856;28;20048;-74
2023/10/09 08:34:26;;;;;;;15.32;10.07;;;21.40;99.90;;;21.88;90.24;101938.44;5084521;28;20057;-74
2023/10/09 08:36:57;;;;;;;13.98;8.95;;;21.50;99.90;;;22.00;88.93;101940.72;5088566;28;20036;-73
2023/10/09 08:39:33;;;;;;;16.13;10.15;;;21.60;99.90;;;22.13;88.92;101936.66;5088519;28;20400;-73
2023/10/09 08:42:05;;;;;;;18.67;10.00;;;21.70;99.90;;;22.28;88.27;101944.19;5075229;28;20119;-74
2023/10/09 08:44:35;;;;;;;16.85;10.85;;;21.90;99.90;;;22.30;87.63;101930.66;5075220;28;20555;-72
2023/10/09 08:47:04;;;;;;;18.45;9.77;;;21.90;99.90;;;22.37;86.63;101954.69;5075158;28;20041;-73
2023/10/09 08:49:34;;;;;;;18.05;9.85;;;22.00;99.90;;;22.33;85.88;101958.41;5075058;28;20098;-73
2023/10/09 08:52:04;;;;;;;16.00;9.68;;;22.00;99.90;;;22.39;85.07;101974.38;5075157;28;20063;-73
2023/10/09 08:54:33;;;;;;;17.33;10.05;;;22.00;99.90;;;22.11;84.46;101973.56;5075166;28;20047;-73
2023/10/09 08:57:02;;;;;;;15.15;9.30;;;21.90;99.90;;;21.99;84.93;101976.66;5075274;28;20049;-73
2023/10/09 08:59:30;;;;;;;20.25;10.30;;;21.70;99.90;;;21.97;84.66;101977.69;5075113;28;20378;-73
2023/10/09 09:01:59;;;;;;;16.98;10.30;;;21.60;99.90;;;21.86;86.10;101969.94;5074845;28;20059;-72
2023/10/09 09:04:39;;;;;;;18.75;9.85;;;21.50;99.90;;;22.03;85.41;101982.84;5074451;28;20044;-72
2023/10/09 09:07:26;;;;;;;14.65;9.10;;;21.70;99.90;;;21.74;84.10;101953.28;5074520;28;20226;-72
2023/10/09 09:10:03;;;;;;;20.95;9.23;;;21.60;99.90;;;21.92;83.87;101983.22;5074560;28;20044;-74
2023/10/09 09:12:37;;;;;;;17.27;10.10;;;21.60;99.90;;;21.86;84.79;101982.53;5058898;28;20052;-73
2023/10/09 09:15:20;;;;;;;18.85;9.10;;;21.60;99.90;;;21.97;85.39;101985.75;5074832;28;20075;-73
2023/10/09 09:17:49;;;;;;;18.92;9.57;;;21.60;99.90;;;21.92;85.58;101979.63;5074697;28;20045;-73
2023/10/09 09:20:30;;;;;;;23.50;10.27;;;21.70;99.90;;;21.82;86.94;101981.75;5074554;28;20504;-73
2023/10/09 09:22:58;;;;;;;20.75;10.23;;;21.50;99.90;;;21.76;87.90;101987.31;5074310;28;20287;-73
2023/10/09 09:25:45;;;;;;;18.83;9.23;;;21.50;99.90;;;21.68;89.14;101978.59;5074863;28;20506;-74
2023/10/09 09:28:19;;;;;;;17.75;9.88;;;21.40;99.90;;;21.83;88.21;101983.53;5074796;28;20036;-74
2023/10/09 09:30:50;;;;;;;18.50;9.32;;;21.60;99.90;;;21.53;88.02;101965.63;5073246;28;20048;-74
2023/10/09 09:33:39;;;;;;;17.70;9.35;;;21.40;99.90;;;21.66;87.65;101984.97;5074345;28;20045;-74
2023/10/09 09:36:11;;;;;;;13.55;8.38;;;21.40;99.90;;;21.70;86.74;101984.81;5074288;28;20048;-73
2023/10/09 09:38:47;;;;;;;12.38;7.63;;;21.40;99.90;;;21.86;86.45;101986.09;5074378;28;20048;-74
2023/10/09 09:41:24;;;;;;;15.55;8.73;;;21.50;99.90;;;21.76;85.14;101987.31;5073954;28;20049;-74
2023/10/09 09:43:57;;;;;;;15.38;8.70;;;21.50;99.90;;;21.85;84.81;101986.16;5074111;28;20102;-74
2023/10/09 09:46:32;;;;;;;15.23;8.15;;;21.50;99.90;;;21.83;85.03;101983.53;5074219;28;20040;-74
2023/10/09 09:49:03;;;;;;;13.10;8.45;;;21.50;99.90;;;22.04;85.20;101985.50;5073998;28;20029;-74
2023/10/09 09:51:33;;;;;;;;;;;21.70;99.90;;;22.12;83.84;101980.75;5074332;28;20052;-74
2023/10/09 09:54:08;;;;;;;14.15;9.25;;;21.90;99.90;;;22.04;83.28;101990.00;5073689;28;20358;-74
2023/10/09 09:56:39;;;;;;;12.50;8.30;;;21.80;99.90;;;22.00;82.60;101986.53;5074372;28;20041;-74
2023/10/09 09:59:21;;;;;;;17.70;8.52;;;21.70;99.90;;;21.86;82.23;101990.59;5073888;28;20127;-74
2023/10/09 10:01:56;;;;;;;15.70;9.18;;;21.60;99.90;;;21.93;82.13;101982.25;5057930;28;20494;-73
2023/10/09 10:04:29;;;;;;;16.02;8.80;;;21.60;99.90;;;22.03;81.52;101986.41;5073749;28;20048;-73
2023/10/09 10:07:04;;;;;;;19.15;8.85;;;21.70;99.90;;;22.03;82.34;101978.34;5074247;28;20041;-74
2023/10/09 10:09:41;;;;;;;17.73;8.63;;;21.70;99.90;;;22.04;81.61;101980.13;5073177;28;20045;-73
2023/10/09 10:12:10;;;;;;;12.70;7.95;;;21.80;99.90;;;21.74;81.75;101986.47;5072949;28;20044;-74
2023/10/09 10:14:58;;;;;;;15.05;8.68;;;21.50;99.90;;;21.92;82.13;101983.22;5072807;28;20529;-74
2023/10/09 10:17:29;;;;;;;16.23;8.60;;;21.60;99.90;;;21.91;82.05;101994.91;5073129;28;20557;-69
2023/10/09 10:23:20;;;;;;;18.35;8.75;;;21.80;99.90;;;22.22;80.95;101998.31;5073318;28;20055;-68
2023/10/09 10:25:59;;;;;;;18.75;8.52;;;22.00;99.90;;;22.13;80.89;102004.06;5060227;28;20040;-67
2023/10/09 10:28:42;;;;;;;16.92;8.30;;;21.90;99.90;;;22.08;81.32;101994.34;5073141;28;20091;-72
2023/10/09 10:31:14;;;;;;;16.67;8.75;;;21.80;99.90;;;22.21;81.42;101988.50;5071749;28;20471;-74
2023/10/09 10:34:07;;;;;;;16.98;8.73;;;21.90;99.90;;;22.11;81.26;101989.75;5073227;28;20044;-69
2023/10/09 10:36:35;;;;;;;18.60;9.00;;;21.90;99.90;;;22.03;82.08;101980.13;5072994;28;20072;-70
2023/10/09 10:39:10;;;;;;;14.93;8.95;;;21.80;99.90;;;21.94;82.05;101943.63;5073174;28;20048;-72
2023/10/09 10:41:50;;;;;;;13.52;9.15;;;21.90;99.90;;;22.09;82.04;101996.09;5071781;28;20049;-71
2023/10/09 10:44:41;;;;;;;12.10;8.77;;;21.80;99.90;;;22.11;81.61;102005.03;5072918;28;20072;-75
2023/10/09 10:47:24;;;;;;;18.42;9.13;;;21.90;99.90;;;22.21;81.86;102001.09;5057392;28;20045;-69
2023/10/09 10:49:58;;;;;;;18.90;9.13;;;21.90;99.90;;;22.30;81.72;102007.03;5072591;28;20410;-69
2023/10/09 10:52:41;;;;;;;12.93;8.73;;;22.00;99.90;;;22.35;81.37;101997.00;5072871;28;20136;-70
2023/10/09 10:55:18;;;;;;;14.07;8.98;;;22.10;99.90;;;22.48;79.93;102010.03;5058592;28;20429;-72
2023/10/09 10:58:09;;;;;;;18.25;8.50;;;22.10;99.90;;;22.52;78.97;102001.78;5073087;28;20106;-70
2023/10/09 11:03:24;;;;;;;14.85;8.48;;;22.30;99.90;;;22.77;78.97;102001.81;5063551;28;20071;-71
2023/10/09 11:05:52;;;;;;;14.80;8.90;;;22.40;99.90;;;22.81;78.13;101998.94;5072954;28;20041;-72
2023/10/09 11:08:27;;;;;;;14.73;8.10;;;22.50;99.90;;;23.01;77.86;102000.91;5072594;28;20102;-71
2023/10/09 11:11:15;;;;;;;17.55;8.38;;;22.70;99.90;;;23.04;76.79;101996.25;5072574;28;20052;-71
2023/10/09 11:16:42;;;;;;;14.27;8.48;;;22.90;99.90;;;23.06;75.08;101998.91;5071910;28;20056;-71
2023/10/09 11:19:31;;;;;;;11.32;7.55;;;22.80;99.90;;;23.08;74.53;101997.91;5072072;28;20045;-72
2023/10/09 11:25:12;;;;;;;11.80;7.35;;;22.90;99.90;;;23.07;75.13;102000.69;5071095;28;20044;-71
2023/10/09 11:27:50;;;;;;;15.63;8.70;;;22.90;99.90;;;23.09;75.43;102004.19;5072506;28;20538;-72
2023/10/09 11:30:32;;;;;;;14.20;8.18;;;22.90;99.90;;;23.01;75.86;102009.00;5072163;28;20053;-71
2023/10/09 11:33:13;;;;;;;13.63;7.95;;;22.80;99.90;;;23.23;75.86;102007.22;5072323;28;20045;-72
2023/10/09 11:35:43;;;;;;;16.05;8.48;;;22.90;99.90;;;23.00;76.06;102008.13;5072349;28;20083;-70
2023/10/09 11:38:21;;;;;;;13.05;8.20;;;22.80;99.90;;;22.98;75.28;102009.09;5072534;28;20118;-70
2023/10/09 11:41:05;;;;;;;15.15;8.30;;;22.80;99.90;;;22.89;75.72;101993.25;5072500;28;20040;-73
2023/10/09 11:43:53;;;;;;;15.13;8.77;;;22.70;99.90;;;22.62;76.01;102000.56;5072900;28;20049;-71
2023/10/09 11:46:38;;;;;;;16.77;8.73;;;22.40;99.90;;;22.66;75.97;101995.94;5057077;28;20048;-71
2023/10/09 11:49:25;;;;;;;22.73;8.48;;;22.40;99.90;;;22.65;76.05;101991.47;5072218;28;20147;-70